Time;durP1;ratioP1;P1;durP2;ratioP2;P2;SDS_P1;SDS_P2;PMS_P1;PMS_P2;Temp;Humidity;BMP_temperature;BMP_pressure;BME280_temperature;BME280_humidity;BME280_pressure;Samples;Min_cycle;Max_cycle;Signal;HPM_P1;HPM_P2
2023/03/27 00:00:09;;;;;;;9.27;9.07;;;8.90;99.90;;;;;;5057883;28;20460;-76
2023/03/27 00:02:41;;;;;;;8.60;8.50;;;9.00;1.00;;;;;;5055959;28;20464;-75
2023/03/27 00:05:10;;;;;;;8.70;8.60;;;8.90;1.00;;;;;;5057904;28;21126;-75
2023/03/27 00:07:40;;;;;;;8.50;8.40;;;8.80;1.00;;;;;;5058423;28;20473;-79
2023/03/27 00:10:09;;;;;;;8.50;8.30;;;8.80;99.90;;;;;;5061412;28;20462;-76
2023/03/27 00:12:37;;;;;;;8.70;8.60;;;8.90;99.90;;;;;;5064016;28;21116;-74
2023/03/27 00:15:07;;;;;;;8.80;8.70;;;8.70;99.90;;;;;;5061867;28;20458;-76
2023/03/27 00:17:35;;;;;;;8.50;8.40;;;8.80;1.00;;;;;;5063886;28;20473;-76
2023/03/27 00:20:06;;;;;;;8.70;8.60;;;8.80;1.00;;;;;;5062787;28;21030;-76
2023/03/27 00:22:34;;;;;;;8.80;8.70;;;8.80;99.90;;;;;;5061166;28;20513;-75
2023/03/27 00:25:04;;;;;;;8.70;8.60;;;8.90;1.00;;;;;;5062144;28;20466;-77
2023/03/27 00:27:32;;;;;;;8.73;8.60;;;8.80;74.10;;;;;;5063667;28;20466;-77
2023/03/27 00:30:00;;;;;;;8.50;8.30;;;8.80;25.10;;;;;;5060405;28;20446;-75
2023/03/27 00:32:28;;;;;;;9.33;9.13;;;8.70;1.00;;;;;;5063758;28;20871;-81
2023/03/27 00:34:56;;;;;;;8.87;8.77;;;8.80;1.00;;;;;;5057901;28;20461;-78
2023/03/27 00:37:25;;;;;;;8.53;8.43;;;8.70;1.00;;;;;;5062613;28;20496;-77
2023/03/27 00:39:54;;;;;;;8.67;8.57;;;8.70;1.00;;;;;;5061129;28;20459;-77
2023/03/27 00:42:23;;;;;;;8.90;8.80;;;8.80;1.00;;;;;;5063311;28;20463;-78
2023/03/27 00:44:53;;;;;;;9.30;9.10;;;8.70;1.00;;;;;;5058525;28;20458;-80
2023/03/27 00:47:29;;;;;;;8.80;8.70;;;8.60;1.00;;;;;;5060755;28;20472;-77
2023/03/27 00:49:59;;;;;;;9.03;8.93;;;8.60;99.90;;;;;;5059202;28;20556;-82
2023/03/27 00:52:30;;;;;;;8.80;8.60;;;8.60;99.90;;;;;;5058110;28;20487;-77
2023/03/27 00:55:02;;;;;;;8.80;8.60;;;8.60;99.90;;;;;;5060938;28;20464;-79
2023/03/27 00:57:31;;;;;;;8.60;8.40;;;8.60;99.90;;;;;;5061863;28;20855;-77
2023/03/27 01:00:01;;;;;;;9.27;9.10;;;8.60;1.00;;;;;;5061312;28;20463;-79
2023/03/27 01:02:29;;;;;;;8.80;8.70;;;8.60;30.80;;;;;;5060648;28;20468;-80
2023/03/27 01:04:57;;;;;;;8.70;8.60;;;8.60;1.00;;;;;;5059239;28;20562;-76
2023/03/27 01:07:27;;;;;;;8.80;8.70;;;8.50;1.00;;;;;;5057801;28;20489;-78
2023/03/27 01:09:57;;;;;;;8.90;8.77;;;8.60;1.00;;;;;;5058866;28;20457;-80
2023/03/27 01:12:39;;;;;;;8.90;8.80;;;8.50;86.50;;;;;;5059031;28;20488;-79
2023/03/27 01:15:25;;;;;;;8.90;8.70;;;8.50;1.00;;;;;;5057596;28;20500;-76
2023/03/27 01:18:09;;;;;;;8.60;8.50;;;8.50;1.00;;;;;;5059520;28;20481;-78
2023/03/27 01:21:22;;;;;;;8.80;8.60;;;8.50;1.00;;;;;;5064622;28;21062;-79
2023/03/27 01:24:40;;;;;;;9.10;8.93;;;8.50;1.00;;;;;;5063078;28;20469;-79
2023/03/27 01:27:17;;;;;;;9.00;8.80;;;8.40;1.00;;;;;;5063162;28;21169;-77
2023/03/27 01:29:56;;;;;;;8.67;8.57;;;8.40;32.80;;;;;;5063560;28;20981;-78
2023/03/27 01:32:51;;;;;;;9.77;9.50;;;8.40;1.00;;;;;;5064004;28;20477;-77
2023/03/27 01:35:50;;;;;;;8.80;8.70;;;8.40;1.00;;;;;;5060982;28;20493;-77
2023/03/27 01:38:36;;;;;;;8.70;8.60;;;8.40;99.90;;;;;;4978553;28;20660;-81
2023/03/27 01:41:12;;;;;;;8.70;8.60;;;8.30;99.90;;;;;;5062038;28;20457;-74
2023/03/27 01:43:46;;;;;;;8.80;8.70;;;8.30;99.90;;;;;;5062553;28;20974;-78
2023/03/27 01:46:20;;;;;;;8.90;8.77;;;8.30;1.00;;;;;;5064246;28;21027;-76
2023/03/27 01:48:54;;;;;;;8.40;8.30;;;8.30;1.00;;;;;;5063163;28;20457;-78
2023/03/27 01:51:27;;;;;;;8.47;8.37;;;8.20;1.00;;;;;;5064516;28;20546;-78
2023/03/27 01:53:59;;;;;;;8.37;8.27;;;8.30;1.00;;;;;;5065978;28;20478;-80
2023/03/27 01:56:32;;;;;;;8.20;8.10;;;8.20;99.90;;;;;;5067667;28;20979;-79
2023/03/27 01:59:06;;;;;;;8.37;8.20;;;8.10;1.00;;;;;;5055812;28;21119;-75
2023/03/27 02:01:39;;;;;;;8.33;8.23;;;8.10;99.90;;;;;;5063526;28;20472;-75
2023/03/27 02:04:12;;;;;;;9.17;8.97;;;8.20;99.90;;;;;;5060208;28;20863;-77
2023/03/27 02:06:44;;;;;;;10.10;9.50;;;8.10;99.90;;;;;;5062027;28;21083;-79
2023/03/27 02:09:19;;;;;;;10.63;9.93;;;8.10;1.00;;;;;;5064171;28;20485;-75
2023/03/27 02:11:54;;;;;;;11.10;10.50;;;8.00;3.10;;;;;;5063196;28;20459;-74
2023/03/27 02:14:27;;;;;;;10.70;10.20;;;7.90;1.00;;;;;;5064556;28;20484;-78
2023/03/27 02:16:59;;;;;;;10.73;10.03;;;7.80;1.00;;;;;;5062639;28;20476;-76
2023/03/27 02:19:33;;;;;;;11.30;10.70;;;7.80;1.00;;;;;;5061396;28;20460;-79
2023/03/27 02:22:02;;;;;;;11.03;10.60;;;7.90;1.00;;;;;;5056590;28;20477;-78
2023/03/27 02:24:30;;;;;;;10.73;10.23;;;7.80;1.00;;;;;;5062380;28;20452;-75
2023/03/27 02:27:08;;;;;;;11.03;10.43;;;7.80;1.00;;;;;;5062882;28;20472;-74
2023/03/27 02:29:48;;;;;;;12.47;11.67;;;7.70;1.00;;;;;;5063072;28;20991;-76
2023/03/27 02:32:31;;;;;;;11.93;11.00;;;7.60;1.00;;;;;;5057760;28;20458;-78
2023/03/27 02:35:08;;;;;;;11.03;10.43;;;7.50;1.00;;;;;;5061913;28;20561;-74
2023/03/27 02:37:46;;;;;;;11.47;10.87;;;7.50;21.70;;;;;;5059613;28;20507;-75
2023/03/27 02:40:24;;;;;;;11.60;10.80;;;7.60;1.00;;;;;;5059471;28;20983;-78
2023/03/27 02:43:05;;;;;;;11.77;10.87;;;7.60;1.00;;;;;;5063628;28;20454;-79
2023/03/27 02:45:47;;;;;;;12.50;11.80;;;7.50;1.00;;;;;;5074164;28;20467;-77
2023/03/27 02:48:20;;;;;;;11.47;10.80;;;7.50;1.00;;;;;;5062366;28;20470;-77
2023/03/27 02:50:53;;;;;;;14.53;13.37;;;7.50;1.00;;;;;;5059658;28;20462;-75
2023/03/27 02:53:24;;;;;;;11.73;10.93;;;7.60;1.00;;;;;;5059438;28;20483;-80
2023/03/27 02:55:55;;;;;;;11.63;11.03;;;7.50;1.00;;;;;;5060673;28;20450;-75
2023/03/27 02:58:31;;;;;;;10.40;9.67;;;7.50;99.90;;;;;;5063616;28;20566;-74
2023/03/27 03:01:00;;;;;;;11.83;10.90;;;7.30;99.90;;;;;;5063346;28;20466;-80
2023/03/27 03:03:33;;;;;;;10.70;9.97;;;7.40;1.00;;;;;;5060232;28;20469;-78
2023/03/27 03:06:05;;;;;;;10.87;10.17;;;7.30;99.90;;;;;;5057371;28;20517;-75
2023/03/27 03:08:37;;;;;;;10.83;10.00;;;7.40;99.90;;;;;;5059136;28;20471;-78
2023/03/27 03:11:08;;;;;;;9.57;9.17;;;7.30;99.90;;;;;;5058950;28;20462;-73
2023/03/27 03:13:38;;;;;;;11.70;10.90;;;7.30;99.90;;;;;;5058169;28;20488;-81
2023/03/27 03:16:08;;;;;;;9.50;9.00;;;7.20;99.90;;;;;;5061265;28;20995;-78
2023/03/27 03:18:36;;;;;;;11.13;10.07;;;7.20;99.90;;;;;;5057229;28;20482;-78
2023/03/27 03:21:05;;;;;;;9.37;8.70;;;7.10;90.50;;;;;;5062785;28;20514;-78
2023/03/27 03:23:33;;;;;;;8.93;8.50;;;7.10;7.60;;;;;;5060238;28;20490;-78
2023/03/27 03:26:02;;;;;;;8.77;8.20;;;7.00;1.00;;;;;;5062063;28;20459;-77
2023/03/27 03:28:30;;;;;;;8.70;8.20;;;7.00;1.00;;;;;;5061898;28;20497;-77
2023/03/27 03:31:01;;;;;;;9.10;8.27;;;7.00;1.00;;;;;;5058861;28;20461;-79
2023/03/27 03:33:29;;;;;;;7.73;7.40;;;6.90;1.00;;;;;;5061677;28;20479;-79
2023/03/27 03:35:59;;;;;;;9.00;8.40;;;6.90;1.00;;;;;;5063149;28;20579;-79
2023/03/27 03:38:29;;;;;;;7.73;7.37;;;6.80;1.00;;;;;;5057964;28;20493;-78
2023/03/27 03:41:05;;;;;;;8.83;7.97;;;6.80;1.00;;;;;;5059819;28;20992;-79
2023/03/27 03:43:34;;;;;;;7.90;7.13;;;6.80;1.00;;;;;;5059854;28;20482;-77
2023/03/27 03:46:04;;;;;;;7.70;7.30;;;6.80;1.00;;;;;;5061719;28;20451;-75
2023/03/27 03:48:32;;;;;;;7.53;6.93;;;6.80;1.00;;;;;;5061167;28;20584;-77
2023/03/27 03:51:01;;;;;;;7.50;7.00;;;6.80;1.00;;;;;;5059065;28;20469;-75
2023/03/27 03:53:29;;;;;;;6.97;6.60;;;6.70;1.00;;;;;;5059338;28;20486;-77
2023/03/27 03:55:57;;;;;;;8.73;7.70;;;6.70;1.00;;;;;;5062333;28;20453;-74
2023/03/27 03:58:25;;;;;;;7.83;7.07;;;6.70;99.90;;;;;;5061401;28;20472;-75
2023/03/27 04:01:03;;;;;;;8.57;7.90;;;6.70;1.00;;;;;;5052762;28;20451;-78
2023/03/27 04:03:32;;;;;;;7.43;6.90;;;6.70;1.00;;;;;;5055954;28;20517;-78
2023/03/27 04:06:04;;;;;;;8.60;7.73;;;6.60;1.00;;;;;;5056728;28;20449;-75
2023/03/27 04:08:32;;;;;;;8.23;7.40;;;6.70;1.00;;;;;;5056754;28;20466;-77
2023/03/27 04:11:01;;;;;;;7.17;6.87;;;6.70;1.00;;;;;;5064724;28;21026;-76
2023/03/27 04:13:29;;;;;;;7.53;7.00;;;6.70;99.90;;;;;;5061306;28;20469;-77
2023/03/27 04:16:00;;;;;;;8.73;7.90;;;6.70;99.90;;;;;;5059911;28;20489;-78
2023/03/27 04:18:31;;;;;;;8.33;7.63;;;6.60;99.90;;;;;;5061614;28;20568;-79
2023/03/27 04:21:00;;;;;;;8.23;7.53;;;6.70;99.90;;;;;;5061661;28;20447;-72
2023/03/27 04:23:32;;;;;;;8.00;7.50;;;6.60;99.90;;;;;;5060543;28;20470;-74
2023/03/27 04:26:02;;;;;;;8.15;7.40;;;6.60;1.00;;;;;;5061411;28;20473;-76
2023/03/27 04:28:33;;;;;;;8.90;8.00;;;6.20;99.90;;;;;;5060359;28;20247;-76
2023/03/27 04:31:05;;;;;;;7.93;7.40;;;6.30;99.90;;;;;;5059973;28;20510;-77
2023/03/27 04:33:38;;;;;;;7.50;6.80;;;6.50;99.90;;;;;;5059964;28;20446;-75
2023/03/27 04:36:07;;;;;;;7.20;6.70;;;6.50;99.90;;;;;;5061492;28;20464;-81
2023/03/27 04:38:38;;;;;;;8.53;7.83;;;6.40;99.90;;;;;;5058670;28;21071;-73
2023/03/27 04:41:06;;;;;;;8.93;6.90;;;6.40;99.90;;;;;;5055830;28;20472;-77
2023/03/27 04:43:36;;;;;;;7.70;7.20;;;6.40;99.90;;;;;;5059606;28;20466;-78
2023/03/27 04:46:05;;;;;;;7.67;7.00;;;6.40;99.90;;;;;;5059514;28;20754;-76
2023/03/27 04:48:37;;;;;;;7.80;7.00;;;6.40;99.90;;;;;;5060440;28;20475;-79
2023/03/27 04:51:08;;;;;;;8.27;7.67;;;6.30;99.90;;;;;;5059809;28;20461;-77
2023/03/27 04:53:36;;;;;;;6.80;6.30;;;6.30;99.90;;;;;;5060375;28;20482;-75
2023/03/27 04:56:06;;;;;;;7.90;7.30;;;6.30;99.90;;;;;;5064186;28;20482;-76
2023/03/27 04:58:34;;;;;;;8.10;7.50;;;6.30;99.90;;;;;;5063508;28;20470;-76
2023/03/27 05:01:05;;;;;;;9.13;6.63;;;6.30;99.90;;;;;;5060142;28;20461;-74
2023/03/27 05:03:34;;;;;;;7.20;6.70;;;6.30;99.90;;;;;;5057975;28;20458;-76
2023/03/27 05:06:03;;;;;;;7.10;6.60;;;6.30;99.90;;;;;;5060243;28;20455;-77
2023/03/27 05:08:32;;;;;;;9.03;7.50;;;6.20;99.90;;;;;;5059978;28;20481;-78
2023/03/27 05:11:00;;;;;;;7.80;7.23;;;6.30;99.90;;;;;;5062689;28;20454;-78
2023/03/27 05:13:28;;;;;;;8.13;6.27;;;6.20;99.90;;;;;;5064184;28;20452;-75
2023/03/27 05:15:57;;;;;;;7.20;6.60;;;6.20;99.90;;;;;;5065624;28;21026;-77
2023/03/27 05:18:26;;;;;;;8.20;7.60;;;6.10;99.90;;;;;;5061167;28;20470;-78
2023/03/27 05:20:56;;;;;;;6.43;5.93;;;6.10;99.90;;;;;;5064086;28;20545;-78
2023/03/27 05:23:24;;;;;;;7.20;6.67;;;6.10;99.90;;;;;;5065476;28;20442;-78
2023/03/27 05:25:55;;;;;;;7.03;6.50;;;5.90;99.90;;;;;;5057014;28;20509;-77
2023/03/27 05:28:28;;;;;;;6.93;6.40;;;5.90;99.90;;;;;;5064430;28;20485;-79
2023/03/27 05:30:56;;;;;;;6.70;6.30;;;5.90;99.90;;;;;;5062329;28;20996;-77
2023/03/27 05:33:25;;;;;;;6.90;6.40;;;5.90;99.90;;;;;;5064229;28;20458;-77
2023/03/27 05:35:56;;;;;;;6.83;6.27;;;5.90;99.90;;;;;;5068316;28;20474;-77
2023/03/27 05:38:25;;;;;;;6.87;6.27;;;5.80;99.90;;;;;;5068053;28;21003;-78
2023/03/27 05:40:53;;;;;;;6.27;5.77;;;5.90;99.90;;;;;;5068271;28;20451;-79
2023/03/27 05:43:22;;;;;;;9.40;6.90;;;5.80;99.90;;;;;;5068328;28;20555;-77
2023/03/27 05:45:50;;;;;;;7.00;6.47;;;5.80;99.90;;;;;;5071711;28;21053;-78
2023/03/27 05:48:18;;;;;;;6.83;6.40;;;5.80;99.90;;;;;;5062395;28;20478;-79
2023/03/27 05:50:46;;;;;;;6.80;6.40;;;5.80;99.90;;;;;;5067015;28;20451;-77
2023/03/27 05:53:16;;;;;;;7.93;5.80;;;5.80;99.90;;;;;;5066264;28;20469;-77
2023/03/27 05:55:45;;;;;;;5.73;5.33;;;5.90;99.90;;;;;;5066969;28;20470;-75
2023/03/27 05:58:13;;;;;;;6.87;6.37;;;5.80;99.90;;;;;;5066858;28;20551;-76
2023/03/27 06:00:43;;;;;;;5.97;5.43;;;5.80;99.90;;;;;;5064351;28;20897;-79
2023/03/27 06:03:12;;;;;;;10.23;6.30;;;5.90;99.90;;;;;;5067148;28;20459;-78
2023/03/27 06:05:41;;;;;;;7.13;6.03;;;5.80;99.90;;;;;;5066132;28;20455;-77
2023/03/27 06:08:10;;;;;;;6.10;5.47;;;5.90;99.90;;;;;;5080784;28;20473;-78
2023/03/27 06:10:43;;;;;;;5.87;5.30;;;5.90;99.90;;;;;;5062912;28;20447;-74
2023/03/27 06:13:13;;;;;;;6.17;5.77;;;5.90;99.90;;;;;;5066779;28;20451;-77
2023/03/27 06:15:42;;;;;;;6.07;5.57;;;5.80;99.90;;;;;;5064583;28;20479;-76
2023/03/27 06:18:11;;;;;;;5.60;5.40;;;5.90;99.90;;;;;;5067255;28;20477;-77
2023/03/27 06:20:40;;;;;;;6.53;5.73;;;5.90;99.90;;;;;;5065851;28;21166;-75
2023/03/27 06:23:08;;;;;;;6.60;5.63;;;6.00;99.90;;;;;;5066178;28;21033;-78
2023/03/27 06:25:38;;;;;;;6.90;5.33;;;6.00;99.90;;;;;;5058177;28;20463;-80
2023/03/27 06:28:08;;;;;;;9.20;5.70;;;5.90;99.90;;;;;;5067193;28;20473;-77
2023/03/27 06:30:37;;;;;;;8.07;5.50;;;5.90;99.90;;;;;;5064006;28;22673;-78
2023/03/27 06:33:07;;;;;;;5.73;5.30;;;5.90;99.90;;;;;;5065302;28;20553;-77
2023/03/27 06:35:36;;;;;;;6.70;5.97;;;5.90;99.90;;;;;;5062410;28;20488;-76
2023/03/27 06:38:05;;;;;;;5.97;5.57;;;5.90;99.90;;;;;;5065271;28;20577;-78
2023/03/27 06:40:35;;;;;;;6.23;5.40;;;5.90;99.90;;;;;;5061992;28;20466;-76
2023/03/27 06:43:05;;;;;;;5.97;5.50;;;5.90;99.90;;;;;;5064607;28;20458;-76
2023/03/27 06:45:37;;;;;;;6.90;6.27;;;5.90;99.90;;;;;;5060244;28;20459;-76
2023/03/27 06:48:06;;;;;;;5.27;4.93;;;6.00;99.90;;;;;;5062425;28;20463;-82
2023/03/27 06:50:49;;;;;;;5.40;5.00;;;6.10;99.90;;;;;;5060964;28;20467;-78
2023/03/27 06:53:18;;;;;;;5.93;5.50;;;6.10;99.90;;;;;;5043782;28;21028;-78
2023/03/27 06:55:50;;;;;;;5.83;5.23;;;6.20;99.90;;;;;;5058413;28;20479;-76
2023/03/27 06:58:19;;;;;;;5.87;5.20;;;6.30;99.90;;;;;;5061582;28;20484;-73
2023/03/27 07:00:49;;;;;;;6.43;5.93;;;6.20;99.90;;;;;;5057206;28;21233;-77
2023/03/27 07:03:19;;;;;;;7.67;5.17;;;6.30;99.90;;;;;;5058919;28;20493;-76
2023/03/27 07:05:48;;;;;;;5.47;5.07;;;6.40;99.90;;;;;;5058976;28;20439;-78
2023/03/27 07:08:17;;;;;;;5.87;5.30;;;6.40;99.90;;;;;;5060113;28;20462;-76
2023/03/27 07:10:53;;;;;;;5.83;5.43;;;6.50;99.90;;;;;;5057534;28;20461;-78
2023/03/27 07:13:39;;;;;;;5.70;5.40;;;6.50;99.90;;;;;;5060586;28;21450;-77
2023/03/27 07:16:11;;;;;;;5.47;5.17;;;6.60;99.90;;;;;;5061437;28;20516;-78
2023/03/27 07:18:40;;;;;;;5.90;5.40;;;6.70;99.90;;;;;;5057935;28;20462;-76
2023/03/27 07:21:08;;;;;;;5.67;5.33;;;6.90;99.90;;;;;;5061245;28;20537;-80
2023/03/27 07:23:37;;;;;;;5.10;4.87;;;6.70;99.90;;;;;;5060585;28;20462;-79
2023/03/27 07:26:05;;;;;;;12.03;5.83;;;6.90;99.90;;;;;;5060863;28;20447;-77
2023/03/27 07:28:37;;;;;;;6.57;5.97;;;7.00;99.90;;;;;;5054087;28;20477;-77
2023/03/27 07:31:12;;;;;;;5.97;5.47;;;7.10;99.90;;;;;;5059188;28;20493;-78
2023/03/27 07:34:01;;;;;;;6.13;5.53;;;7.10;99.90;;;;;;5054461;28;20460;-78
2023/03/27 07:36:30;;;;;;;6.03;5.57;;;7.10;99.90;;;;;;5059184;28;20483;-76
2023/03/27 07:38:58;;;;;;;6.17;5.57;;;7.20;99.90;;;;;;5062303;28;20493;-77
2023/03/27 07:41:28;;;;;;;8.67;6.73;;;7.20;99.90;;;;;;5065017;28;20989;-77
2023/03/27 07:43:57;;;;;;;5.90;5.50;;;7.30;99.90;;;;;;5057158;28;20465;-78
2023/03/27 07:46:26;;;;;;;6.33;5.83;;;7.40;99.90;;;;;;5067359;28;20615;-74
2023/03/27 07:48:55;;;;;;;8.03;6.47;;;7.60;99.90;;;;;;5063670;28;20922;-75
2023/03/27 07:51:23;;;;;;;6.73;5.87;;;7.60;99.90;;;;;;5064795;28;20453;-75
2023/03/27 07:53:57;;;;;;;6.43;5.60;;;7.50;99.90;;;;;;5062238;28;20471;-76
2023/03/27 07:56:25;;;;;;;6.93;6.23;;;7.50;99.90;;;;;;5062593;28;20518;-74
2023/03/27 07:58:54;;;;;;;5.60;5.40;;;7.50;99.90;;;;;;5064796;28;21047;-76
2023/03/27 08:01:22;;;;;;;5.67;5.27;;;7.60;99.90;;;;;;5063505;28;20459;-80
2023/03/27 08:03:53;;;;;;;6.57;5.80;;;7.70;99.90;;;;;;5062887;28;20462;-77
2023/03/27 08:06:22;;;;;;;6.20;5.70;;;7.60;99.90;;;;;;5063422;28;20463;-78
2023/03/27 08:08:50;;;;;;;5.60;5.10;;;7.60;99.90;;;;;;5064141;28;20491;-78
2023/03/27 08:11:19;;;;;;;7.13;5.00;;;7.70;99.90;;;;;;5060957;28;20484;-74
2023/03/27 08:13:58;;;;;;;6.33;5.73;;;8.00;99.90;;;;;;5059567;28;20496;-75
2023/03/27 08:16:28;;;;;;;8.20;7.40;;;8.20;99.90;;;;;;5061547;28;20904;-79
2023/03/27 08:19:00;;;;;;;5.30;5.10;;;8.50;99.90;;;;;;5063276;28;20448;-77
2023/03/27 08:21:32;;;;;;;6.70;6.20;;;8.80;99.90;;;;;;5064404;28;20507;-76
2023/03/27 08:24:01;;;;;;;5.60;5.20;;;9.00;99.90;;;;;;5058223;28;20520;-76
2023/03/27 08:26:31;;;;;;;5.80;5.60;;;9.00;99.90;;;;;;5060558;28;20453;-76
2023/03/27 08:28:59;;;;;;;7.40;4.97;;;8.90;99.90;;;;;;5058793;28;20872;-79
2023/03/27 08:31:29;;;;;;;6.73;5.07;;;9.00;99.90;;;;;;5062826;28;20457;-79
2023/03/27 08:33:59;;;;;;;5.33;4.93;;;9.10;99.90;;;;;;5063165;28;20811;-77
2023/03/27 08:36:28;;;;;;;6.87;6.07;;;9.10;99.90;;;;;;5061769;28;20481;-78
2023/03/27 08:38:56;;;;;;;4.93;4.63;;;9.40;99.90;;;;;;5055495;28;20463;-79
2023/03/27 08:41:29;;;;;;;5.80;5.30;;;9.50;99.90;;;;;;5062849;28;21345;-78
2023/03/27 08:44:02;;;;;;;5.87;5.47;;;9.50;99.90;;;;;;5059473;28;20467;-78
2023/03/27 08:46:36;;;;;;;5.30;4.90;;;9.80;99.90;;;;;;5058952;28;21248;-77
2023/03/27 08:49:11;;;;;;;6.73;6.20;;;10.00;99.90;;;;;;5054840;28;20975;-77
2023/03/27 08:51:47;;;;;;;5.70;5.20;;;10.10;99.90;;;;;;5057955;28;20450;-78
2023/03/27 08:54:20;;;;;;;5.60;5.30;;;10.30;99.90;;;;;;5058298;28;20454;-78
2023/03/27 08:56:49;;;;;;;5.43;5.23;;;10.40;99.90;;;;;;5062614;28;20482;-78
2023/03/27 08:59:20;;;;;;;5.90;5.40;;;10.40;99.90;;;;;;5057480;28;20454;-79
2023/03/27 09:01:57;;;;;;;5.17;4.73;;;10.40;99.90;;;;;;5055095;28;20472;-78
2023/03/27 09:04:38;;;;;;;5.53;5.23;;;10.50;99.90;;;;;;5061773;28;20458;-78
2023/03/27 09:07:11;;;;;;;5.67;5.27;;;10.60;99.90;;;;;;5060373;28;21086;-76
2023/03/27 09:09:51;;;;;;;5.40;5.10;;;10.70;99.90;;;;;;5059277;28;20973;-79
2023/03/27 09:12:37;;;;;;;5.57;5.30;;;11.00;99.90;;;;;;5061704;28;20496;-76
2023/03/27 09:15:12;;;;;;;6.17;5.70;;;10.90;99.90;;;;;;5062025;28;20858;-76
2023/03/27 09:17:44;;;;;;;6.13;5.57;;;11.10;99.90;;;;;;5057603;28;20484;-74
2023/03/27 09:20:19;;;;;;;5.30;5.00;;;11.20;99.90;;;;;;5058505;28;20940;-79
2023/03/27 09:22:52;;;;;;;6.53;5.80;;;11.40;99.90;;;;;;5060138;28;20542;-76
2023/03/27 09:25:26;;;;;;;5.47;5.00;;;11.50;99.10;;;;;;5057110;28;20504;-77
2023/03/27 09:27:55;;;;;;;5.27;4.97;;;11.50;99.90;;;;;;5060118;28;20490;-77
2023/03/27 09:30:26;;;;;;;7.40;5.20;;;11.50;96.30;;;;;;5062328;28;20470;-77
2023/03/27 09:32:58;;;;;;;4.87;4.60;;;11.40;92.70;;;;;;5075938;28;20445;-77
2023/03/27 09:35:28;;;;;;;5.80;5.40;;;11.30;95.40;;;;;;5059072;28;20454;-77
2023/03/27 09:38:02;;;;;;;6.57;5.13;;;11.50;92.20;;;;;;5057691;28;20482;-78
2023/03/27 09:40:37;;;;;;;5.13;4.67;;;11.70;97.20;;;;;;5063243;28;20482;-77
2023/03/27 09:43:08;;;;;;;5.13;4.83;;;11.80;95.20;;;;;;5064549;28;20441;-78
2023/03/27 09:45:40;;;;;;;5.23;4.83;;;11.90;93.10;;;;;;5060489;28;20592;-77
2023/03/27 09:48:14;;;;;;;5.10;4.80;;;12.00;92.00;;;;;;5061893;28;22113;-77
2023/03/27 09:50:46;;;;;;;5.40;5.00;;;12.00;92.20;;;;;;5062357;28;21305;-75
2023/03/27 09:53:17;;;;;;;5.60;5.20;;;12.20;91.00;;;;;;5057119;28;20452;-78
2023/03/27 09:55:51;;;;;;;4.70;4.37;;;12.30;90.20;;;;;;5059977;28;20494;-78
2023/03/27 09:58:34;;;;;;;4.30;4.10;;;12.00;78.00;;;;;;5059988;28;20505;-78
2023/03/27 10:01:13;;;;;;;4.50;4.20;;;11.80;69.80;;;;;;5061202;28;20461;-80
2023/03/27 10:03:47;;;;;;;5.63;4.53;;;11.70;65.40;;;;;;5060323;28;20462;-78
2023/03/27 10:06:29;;;;;;;4.90;4.63;;;11.80;71.80;;;;;;5061679;28;20466;-77
2023/03/27 10:08:59;;;;;;;4.43;4.13;;;11.90;73.70;;;;;;5061764;28;20536;-76
2023/03/27 10:11:31;;;;;;;4.80;4.40;;;12.20;69.80;;;;;;5060689;28;20469;-78
2023/03/27 10:14:01;;;;;;;4.60;4.30;;;12.20;60.70;;;;;;5061519;28;20827;-75
2023/03/27 10:16:37;;;;;;;4.50;4.20;;;12.40;90.70;;;;;;5058462;28;20455;-79
2023/03/27 10:19:06;;;;;;;4.30;4.20;;;12.50;72.90;;;;;;5063169;28;20494;-78
2023/03/27 10:21:40;;;;;;;6.00;4.30;;;12.30;64.20;;;;;;5060942;28;20455;-77
2023/03/27 10:24:21;;;;;;;4.47;4.10;;;12.10;56.90;;;;;;5060091;28;20967;-78
2023/03/27 10:26:52;;;;;;;4.10;3.90;;;12.20;54.50;;;;;;5052910;28;20489;-77
2023/03/27 10:29:24;;;;;;;4.30;4.00;;;12.30;54.60;;;;;;5063166;28;20477;-76
2023/03/27 10:31:54;;;;;;;4.47;4.17;;;12.30;56.40;;;;;;5064450;28;20451;-77
2023/03/27 10:34:32;;;;;;;4.60;4.40;;;12.20;55.60;;;;;;5063547;28;20462;-74
2023/03/27 10:37:03;;;;;;;4.17;4.00;;;12.30;56.00;;;;;;5063116;28;20483;-78
2023/03/27 10:39:35;;;;;;;3.87;3.67;;;12.30;52.50;;;;;;5065409;28;20463;-78
2023/03/27 10:42:07;;;;;;;3.80;3.40;;;12.20;43.90;;;;;;5064875;28;20456;-76
2023/03/27 10:44:38;;;;;;;3.90;3.70;;;12.10;41.20;;;;;;5061618;28;21023;-80
2023/03/27 10:47:16;;;;;;;3.90;3.67;;;12.10;37.60;;;;;;5064318;28;20481;-77
2023/03/27 10:49:52;;;;;;;6.37;3.60;;;12.00;39.00;;;;;;5063896;28;20893;-78
2023/03/27 10:52:27;;;;;;;3.63;3.43;;;12.20;49.00;;;;;;5062991;28;20553;-76
2023/03/27 10:55:11;;;;;;;3.73;3.43;;;12.20;44.50;;;;;;5062000;28;20481;-77
2023/03/27 10:57:41;;;;;;;4.57;3.73;;;12.30;45.20;;;;;;5061866;28;20478;-77
2023/03/27 11:00:17;;;;;;;3.50;3.40;;;12.30;39.10;;;;;;5056388;28;20676;-79
2023/03/27 11:02:52;;;;;;;3.83;3.53;;;12.30;39.30;;;;;;5063205;28;21152;-79
2023/03/27 11:05:26;;;;;;;3.57;3.40;;;12.30;37.90;;;;;;5061777;28;20496;-79
2023/03/27 11:08:02;;;;;;;3.92;3.53;;;12.20;36.60;;;;;;5063136;28;20891;-78
2023/03/27 11:10:34;;;;;;;4.60;4.30;;;12.30;39.80;;;;;;5053723;28;20215;-80
2023/03/27 11:13:09;;;;;;;5.73;4.20;;;12.40;44.20;;;;;;5063555;28;20481;-81
2023/03/27 11:15:42;;;;;;;4.20;3.53;;;12.40;37.70;;;;;;5059770;28;20468;-78
2023/03/27 11:18:16;;;;;;;4.23;3.33;;;12.20;33.80;;;;;;5058495;28;20525;-77
2023/03/27 11:20:51;;;;;;;3.93;3.63;;;12.20;33.50;;;;;;5062162;28;20458;-78
2023/03/27 11:23:28;;;;;;;3.80;3.50;;;12.20;48.50;;;;;;5060152;28;20465;-77
2023/03/27 11:25:58;;;;;;;4.20;4.00;;;12.30;33.90;;;;;;5059141;28;20969;-79
2023/03/27 11:28:38;;;;;;;3.70;3.50;;;12.30;36.60;;;;;;5056441;28;20499;-77
2023/03/27 11:31:15;;;;;;;3.30;3.10;;;12.20;30.50;;;;;;5061260;28;20459;-75
2023/03/27 11:33:49;;;;;;;3.27;2.90;;;12.00;28.10;;;;;;5062759;28;20458;-81
2023/03/27 11:36:33;;;;;;;3.37;3.03;;;12.30;32.30;;;;;;5061214;28;20461;-75
2023/03/27 11:39:14;;;;;;;3.10;2.93;;;12.30;30.00;;;;;;5063117;28;20492;-78
2023/03/27 11:41:44;;;;;;;4.20;3.00;;;12.30;29.40;;;;;;5063589;28;21005;-77
2023/03/27 11:44:12;;;;;;;3.10;3.00;;;12.40;29.80;;;;;;5062551;28;20962;-78
2023/03/27 11:47:06;;;;;;;5.10;3.13;;;12.30;28.60;;;;;;5059830;28;20968;-77
2023/03/27 11:49:56;;;;;;;3.00;2.80;;;12.10;26.40;;;;;;5052353;28;20464;-80
2023/03/27 11:52:38;;;;;;;3.73;3.37;;;11.80;24.10;;;;;;5063521;28;20447;-76
2023/03/27 11:55:23;;;;;;;2.90;2.70;;;12.00;27.80;;;;;;5057812;28;20542;-78
2023/03/27 11:58:03;;;;;;;3.27;3.07;;;12.10;29.70;;;;;;5061334;28;21023;-74
2023/03/27 12:00:38;;;;;;;3.70;3.50;;;12.20;29.80;;;;;;5062384;28;20467;-78
2023/03/27 12:03:47;;;;;;;3.27;3.17;;;12.10;26.40;;;;;;5062232;28;20463;-79
2023/03/27 12:06:23;;;;;;;3.10;2.90;;;12.10;26.10;;;;;;5064780;28;20873;-75
2023/03/27 12:09:09;;;;;;;2.60;2.50;;;12.20;27.90;;;;;;5060177;28;20475;-76
2023/03/27 12:11:43;;;;;;;3.20;3.00;;;12.30;26.50;;;;;;5064684;28;20452;-78
2023/03/27 12:14:38;;;;;;;2.87;2.67;;;12.40;27.20;;;;;;5065328;28;20436;-79
2023/03/27 12:17:43;;;;;;;3.30;3.00;;;12.20;25.40;;;;;;5060237;28;20482;-76
2023/03/27 12:20:24;;;;;;;2.97;2.70;;;12.40;28.70;;;;;;5064353;28;20464;-77
2023/03/27 12:23:02;;;;;;;6.13;2.80;;;12.30;24.60;;;;;;5064644;28;20573;-75
2023/03/27 12:25:52;;;;;;;3.13;2.67;;;12.00;21.00;;;;;;5054526;28;21114;-77
2023/03/27 12:28:37;;;;;;;4.13;2.93;;;11.90;31.30;;;;;;5062445;28;20888;-76
2023/03/27 12:31:24;;;;;;;2.67;2.57;;;11.90;21.80;;;;;;5064636;28;20462;-78
2023/03/27 12:34:00;;;;;;;4.67;2.50;;;11.90;21.60;;;;;;5062835;28;20547;-78
2023/03/27 12:36:36;;;;;;;3.53;3.23;;;11.80;20.00;;;;;;5063057;28;20443;-77
2023/03/27 12:39:15;;;;;;;3.00;2.70;;;11.70;19.70;;;;;;5063329;28;20848;-76
2023/03/27 12:41:45;;;;;;;3.20;3.10;;;11.70;20.20;;;;;;5064166;28;20960;-78
2023/03/27 12:44:20;;;;;;;3.57;3.27;;;11.70;20.50;;;;;;5063616;28;20488;-78
2023/03/27 12:47:08;;;;;;;2.67;2.57;;;11.70;21.70;;;;;;5063830;28;20450;-78
2023/03/27 12:49:42;;;;;;;3.00;2.80;;;11.70;21.80;;;;;;5063297;28;20457;-78
2023/03/27 12:52:17;;;;;;;3.80;2.60;;;11.70;22.70;;;;;;5063471;28;20458;-78
2023/03/27 12:55:06;;;;;;;4.13;3.00;;;11.70;22.60;;;;;;5060530;28;20512;-79
2023/03/27 12:57:42;;;;;;;2.50;2.40;;;11.60;22.20;;;;;;5062932;28;20516;-74
2023/03/27 13:00:24;;;;;;;2.73;2.63;;;11.60;22.60;;;;;;5063190;28;21026;-78
2023/03/27 13:03:26;;;;;;;3.50;3.20;;;11.50;34.40;;;;;;5061785;28;20535;-78
2023/03/27 13:06:17;;;;;;;2.83;2.63;;;11.40;21.20;;;;;;5064529;28;20453;-78
2023/03/27 13:09:07;;;;;;;2.90;2.43;;;11.40;22.20;;;;;;5063596;28;20458;-77
2023/03/27 13:11:49;;;;;;;2.90;2.70;;;11.40;19.70;;;;;;5063431;28;21538;-77
2023/03/27 13:14:52;;;;;;;2.93;2.80;;;11.50;21.70;;;;;;5066864;28;20824;-78
2023/03/27 13:17:53;;;;;;;3.33;2.90;;;11.30;18.30;;;;;;5031240;28;20544;-77
2023/03/27 13:20:30;;;;;;;3.10;2.80;;;11.20;18.90;;;;;;5067403;28;20485;-74
2023/03/27 13:23:26;;;;;;;3.30;2.83;;;11.20;18.90;;;;;;5067173;28;20462;-75
2023/03/27 13:26:12;;;;;;;2.50;2.40;;;11.00;17.20;;;;;;5066823;28;20464;-77